Time;durP1;ratioP1;P1;durP2;ratioP2;P2;SDS_P1;SDS_P2;PMS_P1;PMS_P2;Temp;Humidity;BMP_temperature;BMP_pressure;BME280_temperature;BME280_humidity;BME280_pressure;Samples;Min_cycle;Max_cycle;Signal;HPM_P1;HPM_P2
2022/02/19 00:00:13;;;;;;;;;;;;;;;11.09;78.41;97792.65;1751552;81;20186;-81
2022/02/19 00:02:39;;;;;;;;;;;;;;;11.27;77.96;97796.33;1751048;80;20630;-80
2022/02/19 00:05:05;;;;;;;;;;;;;;;11.32;77.49;97760.80;1754634;81;20174;-84
2022/02/19 00:07:31;;;;;;;;;;;;;;;11.43;77.28;97760.06;1744828;80;20214;-83
2022/02/19 00:09:56;;;;;;;;;;;;;;;11.48;76.89;97772.12;1756666;81;20450;-80
2022/02/19 00:12:22;;;;;;;;;;;;;;;11.35;76.88;97778.86;1749695;81;20130;-81
2022/02/19 00:14:47;;;;;;;;;;;;;;;11.57;76.12;97755.95;1749618;81;21806;-79
2022/02/19 00:17:13;;;;;;;;;;;;;;;11.31;76.52;97786.42;1754766;81;20264;-81
2022/02/19 00:19:38;;;;;;;;;;;;;;;11.40;76.14;97759.70;1744993;81;20170;-83
2022/02/19 00:22:05;;;;;;;;;;;;;;;11.43;75.98;97764.03;1749460;80;20162;-80
2022/02/19 00:24:31;;;;;;;;;;;;;;;11.41;76.06;97766.09;1751168;80;20466;-81
2022/02/19 00:26:57;;;;;;;;;;;;;;;11.39;75.85;97758.91;1751612;81;21080;-82
2022/02/19 00:29:23;;;;;;;;;;;;;;;11.44;76.19;97789.44;1752457;80;20122;-83
2022/02/19 00:31:49;;;;;;;;;;;;;;;11.41;76.14;97779.30;1741252;81;20483;-81
2022/02/19 00:34:15;;;;;;;;;;;;;;;11.79;75.34;97799.42;1752139;80;20195;-81
2022/02/19 00:36:41;;;;;;;;;;;;;;;11.70;75.44;97771.67;1721220;81;20168;-81
2022/02/19 00:39:07;;;;;;;;;;;;;;;11.84;74.78;97783.69;1750196;81;21091;-81
2022/02/19 00:41:32;;;;;;;;;;;;;;;11.81;74.69;97786.78;1742559;80;20473;-80
2022/02/19 00:43:58;;;;;;;;;;;;;;;11.71;74.47;97761.89;1741919;81;20156;-81
2022/02/19 00:46:24;;;;;;;;;;;;;;;11.86;73.62;97758.34;1741583;81;20126;-84
2022/02/19 00:48:50;;;;;;;;;;;;;;;11.84;72.42;97772.31;1740945;81;20257;-82
2022/02/19 00:51:19;;;;;;;;;;;;;;;11.92;72.31;97787.06;1744607;80;21098;-82
2022/02/19 00:53:47;;;;;;;;;;;;;;;11.90;71.92;97767.95;1742988;80;20492;-81
2022/02/19 00:56:13;;;;;;;;;;;;;;;12.02;69.91;97782.06;1741735;81;20185;-79
2022/02/19 00:58:38;;;;;;;;;;;;;;;12.26;68.53;97793.55;1743458;80;20122;-80
2022/02/19 01:01:04;;;;;;;;;;;;;;;12.27;67.70;97815.52;1742625;80;20735;-80
2022/02/19 01:03:31;;;;;;;;;;;;;;;12.27;67.27;97803.09;1768299;79;22442;-82
2022/02/19 01:05:58;;;;;;;;;;;;;;;12.38;66.61;97804.16;1767670;79;20171;-80
2022/02/19 01:08:23;;;;;;;;;;;;;;;12.48;67.44;97945.25;1768533;80;20143;-82
2022/02/19 01:10:49;;;;;;;;;;;;;;;11.98;64.59;97974.80;1766677;80;20522;-82
2022/02/19 01:13:14;;;;;;;;;;;;;;;11.73;62.29;97909.20;1765401;79;20181;-81
2022/02/19 01:15:42;;;;;;;;;;;;;;;11.61;61.79;97930.28;1761471;80;21070;-80
2022/02/19 01:18:09;;;;;;;;;;;;;;;11.44;60.73;97925.54;1762262;80;20184;-81
2022/02/19 01:20:36;;;;;;;;;;;;;;;11.39;61.24;97934.64;1736953;80;20140;-81
2022/02/19 01:23:02;;;;;;;;;;;;;;;11.37;60.13;97903.63;1742469;81;20272;-80
2022/02/19 01:25:28;;;;;;;;;;;;;;;11.41;58.89;97915.40;1773657;80;20634;-81
2022/02/19 01:27:53;;;;;;;;;;;;;;;11.22;57.10;97892.61;1774350;80;21830;-81
2022/02/19 01:30:19;;;;;;;;;;;;;;;11.38;56.76;97905.27;1771414;80;20128;-81
2022/02/19 01:32:45;;;;;;;;;;;;;;;11.32;56.82;97921.45;1771855;80;20204;-81
2022/02/19 01:35:10;;;;;;;;;;;;;;;11.45;56.41;97962.02;1742083;80;20187;-80
2022/02/19 01:37:36;;;;;;;;;;;;;;;11.50;55.98;97949.78;1721331;81;20464;-84
2022/02/19 01:40:02;;;;;;;;;;;;;;;11.56;55.11;97958.69;1763670;80;20958;-80
2022/02/19 01:42:28;;;;;;;;;;;;;;;11.58;55.18;97912.22;1749848;80;20167;-80
2022/02/19 01:44:54;;;;;;;;;;;;;;;11.59;54.26;97952.97;1760492;80;20695;-80
2022/02/19 01:47:19;;;;;;;;;;;;;;;11.68;54.46;97921.76;1757269;80;20446;-80
2022/02/19 01:49:45;;;;;;;;;;;;;;;11.58;52.32;98061.05;1746701;80;20227;-81
2022/02/19 01:52:15;;;;;;;;;;;;;;;11.76;50.29;98029.08;1760360;80;21092;-80
2022/02/19 01:54:41;;;;;;;;;;;;;;;11.71;49.46;98009.89;1761805;80;20446;-80
2022/02/19 01:57:07;;;;;;;;;;;;;;;11.58;48.81;97979.63;1762128;80;20208;-79
2022/02/19 01:59:36;;;;;;;;;;;;;;;11.52;48.49;97969.91;1756373;80;20133;-80
2022/02/19 02:02:02;;;;;;;;;;;;;;;11.74;47.00;98001.53;1760798;79;20175;-81
2022/02/19 02:04:28;;;;;;;;;;;;;;;11.99;46.44;97954.44;1764770;80;20977;-82
2022/02/19 02:06:53;;;;;;;;;;;;;;;12.04;45.90;97957.23;1753549;80;20240;-79
2022/02/19 02:09:19;;;;;;;;;;;;;;;11.74;44.78;98000.20;1762754;80;20174;-82
2022/02/19 02:11:45;;;;;;;;;;;;;;;11.79;44.82;97996.42;1762884;80;20468;-83
2022/02/19 02:14:11;;;;;;;;;;;;;;;11.94;44.80;97984.72;1767009;80;20261;-79
2022/02/19 02:16:38;;;;;;;;;;;;;;;11.82;44.52;97941.78;1764740;80;21085;-81
2022/02/19 02:19:03;;;;;;;;;;;;;;;11.79;44.26;97977.91;1758365;80;20278;-79
2022/02/19 02:21:29;;;;;;;;;;;;;;;11.88;44.12;98063.58;1760209;80;20190;-79
2022/02/19 02:23:55;;;;;;;;;;;;;;;11.82;44.27;97998.63;1758317;80;20197;-78
2022/02/19 02:26:21;;;;;;;;;;;;;;;11.78;44.26;97978.92;1763202;80;20250;-81
2022/02/19 02:28:47;;;;;;;;;;;;;;;11.59;43.45;98094.89;1756853;79;21108;-79
2022/02/19 02:31:12;;;;;;;;;;;;;;;11.77;43.69;98055.30;1759104;80;20154;-79
2022/02/19 02:33:42;;;;;;;;;;;;;;;11.71;44.20;97986.63;1768233;80;20489;-79
2022/02/19 02:36:08;;;;;;;;;;;;;;;11.43;44.47;98042.84;1752535;80;20102;-79
2022/02/19 02:38:33;;;;;;;;;;;;;;;11.63;44.80;97999.59;1762369;80;20184;-79
2022/02/19 02:40:59;;;;;;;;;;;;;;;11.34;45.01;98037.51;1762565;79;21164;-81
2022/02/19 02:43:26;;;;;;;;;;;;;;;11.40;45.22;98034.02;1752957;80;20602;-81
2022/02/19 02:45:51;;;;;;;;;;;;;;;11.38;45.42;98016.25;1752688;80;20144;-80
2022/02/19 02:48:17;;;;;;;;;;;;;;;11.35;45.45;98019.84;1761651;80;20576;-80
2022/02/19 02:50:42;;;;;;;;;;;;;;;11.11;45.83;98038.88;1764942;79;20128;-83
2022/02/19 02:53:08;;;;;;;;;;;;;;;11.24;45.49;98023.97;1761119;80;21109;-80
2022/02/19 02:55:34;;;;;;;;;;;;;;;11.04;45.74;98024.89;1769360;80;20350;-79
2022/02/19 02:57:59;;;;;;;;;;;;;;;11.15;45.73;98039.25;1767482;79;20142;-79
2022/02/19 03:00:25;;;;;;;;;;;;;;;11.05;45.83;98068.78;1771272;80;20507;-79
2022/02/19 03:02:51;;;;;;;;;;;;;;;11.07;45.89;98035.03;1762864;80;20139;-78
2022/02/19 03:05:16;;;;;;;;;;;;;;;11.12;45.80;98019.37;1767038;80;21938;-81
2022/02/19 03:07:42;;;;;;;;;;;;;;;11.15;45.75;98073.59;1767225;80;20187;-79
2022/02/19 03:10:08;;;;;;;;;;;;;;;11.09;45.35;98042.25;1763351;79;20133;-80
2022/02/19 03:12:35;;;;;;;;;;;;;;;10.96;45.74;98043.63;1760259;80;20431;-84
2022/02/19 03:15:01;;;;;;;;;;;;;;;11.00;45.75;98067.28;1765220;80;20175;-81
2022/02/19 03:17:26;;;;;;;;;;;;;;;10.88;45.97;98072.92;1766101;79;21002;-81
2022/02/19 03:19:52;;;;;;;;;;;;;;;10.74;46.51;98091.44;1764245;80;20187;-82
2022/02/19 03:22:17;;;;;;;;;;;;;;;10.73;46.77;98162.41;1762276;80;20134;-79
2022/02/19 03:24:43;;;;;;;;;;;;;;;10.65;46.74;98066.29;1759468;79;20136;-81
2022/02/19 03:27:09;;;;;;;;;;;;;;;10.78;46.66;98071.53;1762847;79;20171;-80
2022/02/19 03:29:35;;;;;;;;;;;;;;;10.95;46.29;98093.49;1761970;80;21221;-79
2022/02/19 03:32:05;;;;;;;;;;;;;;;10.71;46.56;98068.09;1758153;80;20174;-81
2022/02/19 03:34:30;;;;;;;;;;;;;;;10.64;46.33;98121.92;1759892;80;20229;-80
2022/02/19 03:36:56;;;;;;;;;;;;;;;10.70;46.14;98111.34;1762577;80;20195;-80
2022/02/19 03:39:21;;;;;;;;;;;;;;;10.90;45.88;98078.80;1754119;79;20441;-81
2022/02/19 03:41:47;;;;;;;;;;;;;;;10.56;46.19;98086.00;1757056;80;21195;-81
2022/02/19 03:44:12;;;;;;;;;;;;;;;10.71;45.82;98210.65;1752057;80;20359;-81
2022/02/19 03:46:38;;;;;;;;;;;;;;;10.67;45.98;98115.72;1765757;80;20151;-80
2022/02/19 03:49:05;;;;;;;;;;;;;;;10.50;46.03;98098.70;1766136;80;20235;-85
2022/02/19 03:51:31;;;;;;;;;;;;;;;10.60;45.56;98122.86;1756804;80;20275;-81
2022/02/19 03:53:57;;;;;;;;;;;;;;;10.61;45.16;98141.61;1760977;80;21102;-80
2022/02/19 03:56:22;;;;;;;;;;;;;;;10.76;44.99;98103.11;1757963;80;20170;-81
2022/02/19 03:58:48;;;;;;;;;;;;;;;10.81;44.82;98124.93;1758166;80;20700;-79
2022/02/19 04:01:14;;;;;;;;;;;;;;;10.80;44.77;98123.30;1747370;80;20172;-80
2022/02/19 04:03:39;;;;;;;;;;;;;;;10.70;44.46;98144.86;1769674;80;20154;-85
2022/02/19 04:06:05;;;;;;;;;;;;;;;10.81;44.34;98146.05;1760449;80;21143;-81
2022/02/19 04:08:30;;;;;;;;;;;;;;;10.73;44.30;98150.53;1768573;80;20218;-81
2022/02/19 04:10:56;;;;;;;;;;;;;;;10.74;44.45;98140.28;1762582;80;20158;-81
2022/02/19 04:13:22;;;;;;;;;;;;;;;10.73;44.54;98171.64;1751212;80;20152;-80
2022/02/19 04:15:47;;;;;;;;;;;;;;;10.69;44.91;98155.10;1754435;80;20158;-85
2022/02/19 04:18:13;;;;;;;;;;;;;;;10.55;44.71;98234.81;1767739;80;22002;-82
2022/02/19 04:20:39;;;;;;;;;;;;;;;10.64;44.50;98154.41;1769950;80;20123;-83
2022/02/19 04:23:05;;;;;;;;;;;;;;;10.71;44.63;98160.48;1757267;80;20223;-81
2022/02/19 04:25:32;;;;;;;;;;;;;;;10.31;45.04;98168.41;1745694;80;20423;-81
2022/02/19 04:28:08;;;;;;;;;;;;;;;10.43;44.88;98198.20;1756340;80;20250;-80
2022/02/19 04:30:34;;;;;;;;;;;;;;;10.67;44.78;98171.15;1763866;80;22019;-81
2022/02/19 04:33:00;;;;;;;;;;;;;;;10.64;44.81;98190.03;1774170;80;20209;-81
2022/02/19 04:35:26;;;;;;;;;;;;;;;10.44;44.55;98179.52;1767396;80;20714;-81
2022/02/19 04:37:51;;;;;;;;;;;;;;;10.53;44.61;98218.37;1753274;80;20169;-81
2022/02/19 04:40:17;;;;;;;;;;;;;;;10.68;44.69;98166.18;1758584;80;20468;-81
2022/02/19 04:42:43;;;;;;;;;;;;;;;10.76;44.66;98159.88;1758374;80;21077;-79
2022/02/19 04:45:10;;;;;;;;;;;;;;;10.42;44.48;98254.09;1756945;80;20304;-82
2022/02/19 04:47:36;;;;;;;;;;;;;;;10.44;44.99;98176.89;1757876;80;20246;-84
2022/02/19 04:50:02;;;;;;;;;;;;;;;10.57;44.29;98199.29;1763664;80;20513;-80
2022/02/19 04:52:28;;;;;;;;;;;;;;;10.53;44.47;98207.81;1762172;80;20178;-81
2022/02/19 04:54:53;;;;;;;;;;;;;;;10.34;44.74;98204.97;1757830;80;21032;-80
2022/02/19 04:57:19;;;;;;;;;;;;;;;10.26;44.94;98185.37;1760419;80;20459;-83
2022/02/19 04:59:44;;;;;;;;;;;;;;;10.43;44.72;98173.13;1762330;80;20635;-80
2022/02/19 05:02:10;;;;;;;;;;;;;;;10.24;45.12;98194.80;1760940;80;20129;-81
2022/02/19 05:04:36;;;;;;;;;;;;;;;10.34;45.06;98195.74;1763910;80;20483;-80
2022/02/19 05:07:01;;;;;;;;;;;;;;;10.26;44.65;98225.45;1761530;80;21140;-81
2022/02/19 05:09:27;;;;;;;;;;;;;;;10.11;44.18;98234.34;1763872;80;20491;-81
2022/02/19 05:11:52;;;;;;;;;;;;;;;10.13;44.21;98234.14;1759965;80;20128;-81
2022/02/19 05:14:18;;;;;;;;;;;;;;;10.13;43.25;98224.91;1760144;79;20161;-82
2022/02/19 05:16:44;;;;;;;;;;;;;;;9.97;43.15;98307.33;1760100;80;20462;-79
2022/02/19 05:19:09;;;;;;;;;;;;;;;10.04;42.53;98233.02;1753658;80;21148;-78
2022/02/19 05:21:35;;;;;;;;;;;;;;;10.10;42.03;98214.76;1758214;79;20104;-81
2022/02/19 05:24:00;;;;;;;;;;;;;;;10.18;42.70;98242.28;1750529;80;20208;-79
2022/02/19 05:26:26;;;;;;;;;;;;;;;10.19;42.34;98255.27;1757820;80;20117;-80
2022/02/19 05:28:52;;;;;;;;;;;;;;;10.06;42.69;98244.17;1751836;80;20139;-82
2022/02/19 05:31:17;;;;;;;;;;;;;;;10.11;42.75;98233.54;1758315;80;20984;-79
2022/02/19 05:33:43;;;;;;;;;;;;;;;10.13;43.15;98215.67;1765279;79;20139;-79
2022/02/19 05:36:08;;;;;;;;;;;;;;;10.03;43.52;98286.77;1761760;80;20203;-78
2022/02/19 05:38:34;;;;;;;;;;;;;;;9.90;43.64;98277.52;1758820;80;20228;-79
2022/02/19 05:41:00;;;;;;;;;;;;;;;10.16;43.68;98224.02;1763315;80;20163;-80
2022/02/19 05:43:25;;;;;;;;;;;;;;;9.81;43.33;98263.69;1735718;80;21100;-79
2022/02/19 05:45:51;;;;;;;;;;;;;;;10.01;43.29;98217.59;1725416;81;20811;-81
2022/02/19 05:48:17;;;;;;;;;;;;;;;9.82;43.38;98259.21;1723369;81;20211;-80
2022/02/19 05:50:46;;;;;;;;;;;;;;;9.97;42.50;98232.19;1729390;82;20179;-80
2022/02/19 05:53:13;;;;;;;;;;;;;;;9.74;42.45;98258.08;1709113;81;20503;-79
2022/02/19 05:55:38;;;;;;;;;;;;;;;9.88;41.91;98241.28;1707036;83;21067;-81
2022/02/19 05:58:04;;;;;;;;;;;;;;;9.72;41.98;98278.56;1721038;82;20194;-79
2022/02/19 06:00:30;;;;;;;;;;;;;;;9.68;41.28;98290.81;1712610;83;20140;-84
2022/02/19 06:02:55;;;;;;;;;;;;;;;9.57;40.14;98303.23;1700445;83;20143;-80
2022/02/19 06:05:21;;;;;;;;;;;;;;;9.68;40.21;98275.00;1726807;82;20244;-80
2022/02/19 06:07:46;;;;;;;;;;;;;;;9.70;40.25;98276.92;1729124;81;21058;-84
2022/02/19 06:10:14;;;;;;;;;;;;;;;9.52;40.49;98335.92;1721676;82;20173;-80
2022/02/19 06:12:40;;;;;;;;;;;;;;;9.58;40.24;98300.89;1728306;82;20172;-80
2022/02/19 06:15:07;;;;;;;;;;;;;;;9.71;40.40;98296.20;1730265;82;20265;-79
2022/02/19 06:17:34;;;;;;;;;;;;;;;9.65;40.04;98275.39;1727647;82;20104;-79
2022/02/19 06:20:00;;;;;;;;;;;;;;;9.39;40.45;98298.47;1712375;83;21925;-82
2022/02/19 06:22:25;;;;;;;;;;;;;;;9.48;40.65;98264.37;1699410;83;20156;-82
2022/02/19 06:24:51;;;;;;;;;;;;;;;9.44;40.76;98299.20;1711217;83;20195;-81
2022/02/19 06:27:17;;;;;;;;;;;;;;;9.70;40.55;98280.88;1744708;81;20519;-81
2022/02/19 06:29:42;;;;;;;;;;;;;;;9.45;40.85;98281.88;1724175;82;20278;-81
2022/02/19 06:32:09;;;;;;;;;;;;;;;9.64;40.93;98292.20;1726717;82;21172;-83
2022/02/19 06:34:35;;;;;;;;;;;;;;;9.74;41.05;98275.21;1727076;82;20530;-81
2022/02/19 06:37:01;;;;;;;;;;;;;;;9.60;41.28;98300.20;1721984;82;20179;-81
2022/02/19 06:39:26;;;;;;;;;;;;;;;9.49;41.74;98282.30;1728330;82;20575;-83
2022/02/19 06:41:52;;;;;;;;;;;;;;;9.67;41.78;98278.63;1727009;80;20159;-80
2022/02/19 06:44:17;;;;;;;;;;;;;;;9.62;42.09;98281.05;1768582;80;21188;-77
2022/02/19 06:46:43;;;;;;;;;;;;;;;9.70;42.23;98296.69;1773633;80;21048;-82
2022/02/19 06:49:08;;;;;;;;;;;;;;;9.29;41.54;98327.80;1770036;80;20161;-82
2022/02/19 06:51:34;;;;;;;;;;;;;;;9.22;41.52;98347.20;1767954;80;20131;-80
2022/02/19 06:54:00;;;;;;;;;;;;;;;9.26;41.26;98347.94;1768461;80;20222;-81
2022/02/19 06:56:26;;;;;;;;;;;;;;;9.35;41.61;98330.14;1765273;79;21134;-79
2022/02/19 06:58:59;;;;;;;;;;;;;;;9.41;41.58;98291.69;1766860;79;20150;-82
2022/02/19 07:01:21;;;;;;;;;;;;;;;9.34;41.27;98373.31;1767187;80;20162;-80
2022/02/19 07:03:47;;;;;;;;;;;;;;;9.32;40.78;98336.63;1763508;80;20183;-83
2022/02/19 07:06:13;;;;;;;;;;;;;;;9.44;40.92;98309.73;1769408;79;20168;-80
2022/02/19 07:08:39;;;;;;;;;;;;;;;9.52;41.09;98292.45;1774001;79;21149;-81
2022/02/19 07:11:04;;;;;;;;;;;;;;;9.54;41.00;98289.13;1771256;79;20776;-79
2022/02/19 07:13:30;;;;;;;;;;;;;;;9.56;40.68;98308.19;1775513;79;20139;-81
2022/02/19 07:15:56;;;;;;;;;;;;;;;9.39;40.92;98334.03;1767331;79;20318;-81
2022/02/19 07:18:21;;;;;;;;;;;;;;;9.46;40.82;98286.64;1770721;80;20176;-83
2022/02/19 07:20:47;;;;;;;;;;;;;;;9.41;40.99;98312.77;1770139;79;22417;-79
2022/02/19 07:23:15;;;;;;;;;;;;;;;9.37;40.70;98332.59;1762512;80;20235;-79
2022/02/19 07:25:41;;;;;;;;;;;;;;;9.50;40.59;98291.84;1769805;80;20117;-81
2022/02/19 07:28:07;;;;;;;;;;;;;;;9.43;41.02;98308.10;1766809;79;20178;-79
2022/02/19 07:30:34;;;;;;;;;;;;;;;9.48;40.78;98308.36;1771395;80;20301;-81
2022/02/19 07:32:59;;;;;;;;;;;;;;;9.51;40.65;98310.60;1771960;79;21118;-80
2022/02/19 07:35:25;;;;;;;;;;;;;;;9.24;41.23;98371.00;1772048;80;20145;-79
2022/02/19 07:37:51;;;;;;;;;;;;;;;9.51;40.93;98315.87;1768305;79;20204;-83
2022/02/19 07:40:16;;;;;;;;;;;;;;;9.21;41.27;98352.14;1767671;80;20280;-79
2022/02/19 07:42:42;;;;;;;;;;;;;;;9.38;41.14;98336.86;1767457;80;20121;-85
2022/02/19 07:45:08;;;;;;;;;;;;;;;9.36;41.36;98449.52;1772582;80;21098;-79
2022/02/19 07:47:34;;;;;;;;;;;;;;;9.53;41.21;98337.56;1772898;79;20178;-84
2022/02/19 07:58:18;;;;;;;;;;;;;;;9.29;41.55;98344.92;1766672;80;20131;-80
2022/02/19 08:00:47;;;;;;;;;;;;;;;9.26;41.95;98366.38;1770667;80;20676;-81
2022/02/19 08:03:15;;;;;;;;;;;;;;;9.37;41.88;98372.10;1775617;80;20179;-79
2022/02/19 08:05:41;;;;;;;;;;;;;;;9.42;42.17;98352.59;1767198;80;20629;-81
2022/02/19 08:08:07;;;;;;;;;;;;;;;9.45;42.21;98317.97;1768561;80;20238;-80
2022/02/19 08:10:32;;;;;;;;;;;;;;;9.25;42.29;98370.00;1764351;80;21222;-82
2022/02/19 08:12:58;;;;;;;;;;;;;;;9.32;42.31;98409.07;1763908;80;20569;-82
2022/02/19 08:15:23;;;;;;;;;;;;;;;9.30;42.35;98347.84;1771150;80;20695;-81
2022/02/19 08:17:49;;;;;;;;;;;;;;;9.37;42.18;98389.22;1766697;80;20145;-80
2022/02/19 08:20:14;;;;;;;;;;;;;;;9.42;42.53;98346.02;1764986;79;20177;-85
2022/02/19 08:22:40;;;;;;;;;;;;;;;9.43;42.55;98339.72;1774465;80;21921;-80
2022/02/19 08:25:06;;;;;;;;;;;;;;;9.37;42.61;98323.37;1767292;80;20161;-80
2022/02/19 08:27:35;;;;;;;;;;;;;;;9.36;42.84;98335.73;1773107;80;20161;-81
2022/02/19 08:29:59;;;;;;;;;;;;;;;9.40;42.65;98396.75;1765299;80;20123;-84
2022/02/19 08:32:25;;;;;;;;;;;;;;;9.40;42.44;98434.95;1766484;79;20243;-81
2022/02/19 08:34:51;;;;;;;;;;;;;;;9.56;42.59;98347.71;1769255;80;21150;-83
2022/02/19 08:37:16;;;;;;;;;;;;;;;9.46;42.89;98376.22;1766336;80;20305;-81
2022/02/19 08:39:42;;;;;;;;;;;;;;;9.41;42.99;98411.55;1765272;80;20135;-87
2022/02/19 08:42:09;;;;;;;;;;;;;;;9.53;42.74;98459.58;1769446;80;20524;-85
2022/02/19 08:44:34;;;;;;;;;;;;;;;9.38;42.97;98431.70;1758820;80;20206;-82
2022/02/19 08:47:00;;;;;;;;;;;;;;;9.43;43.32;98406.90;1751746;80;21632;-80
2022/02/19 08:49:26;;;;;;;;;;;;;;;9.49;42.96;98541.83;1762029;79;20131;-85
2022/02/19 08:51:51;;;;;;;;;;;;;;;9.31;43.24;98481.19;1761029;80;20154;-81
2022/02/19 08:54:17;;;;;;;;;;;;;;;9.41;43.19;98438.70;1754659;80;20118;-81
2022/02/19 08:56:44;;;;;;;;;;;;;;;9.50;43.12;98404.62;1758153;80;20177;-85
2022/02/19 08:59:10;;;;;;;;;;;;;;;9.53;43.28;98461.41;1756423;80;22417;-84
2022/02/19 09:01:35;;;;;;;;;;;;;;;9.78;43.50;98437.25;1738507;80;20150;-82
2022/02/19 09:04:03;;;;;;;;;;;;;;;9.58;43.58;98407.61;1739415;81;20126;-81
2022/02/19 09:06:29;;;;;;;;;;;;;;;9.58;43.16;98340.41;1748773;80;20132;-83
2022/02/19 09:08:54;;;;;;;;;;;;;;;9.60;42.84;98425.39;1758844;80;20107;-82
2022/02/19 09:11:20;;;;;;;;;;;;;;;9.47;43.08;98371.27;1755215;80;21805;-81
2022/02/19 09:13:47;;;;;;;;;;;;;;;9.42;42.66;98531.75;1764806;80;20191;-82
2022/02/19 09:16:13;;;;;;;;;;;;;;;9.41;42.95;98478.73;1756623;80;20121;-82
2022/02/19 09:18:38;;;;;;;;;;;;;;;9.48;43.19;98396.62;1747721;80;20552;-81
2022/02/19 09:21:04;;;;;;;;;;;;;;;9.38;42.90;98423.28;1761074;80;20143;-83
2022/02/19 09:23:29;;;;;;;;;;;;;;;9.47;43.02;98475.34;1760573;80;22068;-83
2022/02/19 09:25:55;;;;;;;;;;;;;;;9.22;43.05;98493.37;1746787;80;20129;-80
2022/02/19 09:28:24;;;;;;;;;;;;;;;9.18;43.11;98433.66;1756327;80;20158;-80
2022/02/19 09:30:48;;;;;;;;;;;;;;;9.26;43.35;98594.21;1757190;80;20155;-81
2022/02/19 09:33:14;;;;;;;;;;;;;;;9.36;43.40;98494.30;1755100;80;20709;-82
2022/02/19 09:35:40;;;;;;;;;;;;;;;9.33;43.45;98477.85;1763026;80;21123;-79
2022/02/19 09:38:05;;;;;;;;;;;;;;;9.29;43.60;98472.67;1762563;80;20145;-81
2022/02/19 09:40:31;;;;;;;;;;;;;;;9.29;43.53;98456.86;1733463;80;20415;-80
2022/02/19 09:42:56;;;;;;;;;;;;;;;9.62;43.35;98462.89;1746416;80;20270;-79
2022/02/19 09:45:28;;;;;;;;;;;;;;;9.67;43.04;98468.39;1756465;79;20520;-79
2022/02/19 09:47:49;;;;;;;;;;;;;;;9.55;43.63;98572.70;1749609;79;20335;-81
2022/02/19 09:50:15;;;;;;;;;;;;;;;9.52;43.15;98451.86;1753188;79;20267;-79
2022/02/19 09:52:41;;;;;;;;;;;;;;;9.33;43.40;98530.54;1754018;80;20198;-81
2022/02/19 09:55:07;;;;;;;;;;;;;;;9.49;43.38;98562.91;1756893;80;21285;-79
2022/02/19 09:57:33;;;;;;;;;;;;;;;9.48;43.20;98531.00;1755926;80;20164;-83
2022/02/19 09:59:59;;;;;;;;;;;;;;;9.50;43.39;98489.45;1768074;79;21054;-80
2022/02/19 10:02:32;;;;;;;;;;;;;;;9.64;43.41;98499.60;1758665;79;20176;-79
2022/02/19 10:05:18;;;;;;;;;;;;;;;9.53;43.42;98522.81;1759085;80;20181;-81
2022/02/19 10:07:46;;;;;;;;;;;;;;;9.55;43.47;98590.34;1747540;80;20238;-81
2022/02/19 10:10:24;;;;;;;;;;;;;;;9.37;43.41;98450.65;1753915;79;20140;-80
2022/02/19 10:12:50;;;;;;;;;;;;;;;9.54;43.54;98478.86;1757147;79;21971;-81
2022/02/19 10:15:15;;;;;;;;;;;;;;;9.40;43.60;98602.23;1758372;80;20126;-80
2022/02/19 10:17:41;;;;;;;;;;;;;;;9.47;43.78;98506.96;1751049;80;20201;-82
2022/02/19 10:20:08;;;;;;;;;;;;;;;9.42;43.91;98525.16;1748395;80;20181;-82
2022/02/19 10:22:35;;;;;;;;;;;;;;;9.44;43.85;98507.34;1750590;79;20504;-82
2022/02/19 10:25:16;;;;;;;;;;;;;;;9.53;44.23;98524.65;1751978;80;21106;-83
2022/02/19 10:27:51;;;;;;;;;;;;;;;9.47;44.08;98523.58;1754258;80;20643;-82
2022/02/19 10:30:19;;;;;;;;;;;;;;;9.49;44.17;98605.07;1752901;80;20539;-80
2022/02/19 10:32:47;;;;;;;;;;;;;;;9.43;44.40;98600.55;1756161;80;20172;-81
2022/02/19 10:35:14;;;;;;;;;;;;;;;9.51;44.56;98617.06;1755142;80;36317;-82
2022/02/19 10:37:49;;;;;;;;;;;;;;;9.61;44.38;98577.22;1754997;80;21093;-78
2022/02/19 10:40:46;;;;;;;;;;;;;;;9.48;44.46;98599.51;1761168;80;21230;-79
2022/02/19 10:43:20;;;;;;;;;;;;;;;9.38;44.62;98585.81;1755547;80;20159;-80
2022/02/19 10:46:02;;;;;;;;;;;;;;;9.58;44.88;98544.65;1758592;80;20167;-82
2022/02/19 10:48:35;;;;;;;;;;;;;;;9.39;45.14;98623.02;1755268;80;20197;-79
2022/02/19 10:51:08;;;;;;;;;;;;;;;9.38;45.08;98576.59;1756170;80;21157;-81
2022/02/19 10:53:36;;;;;;;;;;;;;;;9.30;45.05;98698.70;1753282;80;20206;-82
2022/02/19 10:56:01;;;;;;;;;;;;;;;9.58;45.18;98655.34;1750773;80;20181;-80
2022/02/19 10:58:27;;;;;;;;;;;;;;;9.32;45.22;98576.83;1735803;80;20938;-82
2022/02/19 11:00:52;;;;;;;;;;;;;;;9.18;45.78;98789.20;1755767;80;20296;-83
2022/02/19 11:03:18;;;;;;;;;;;;;;;9.37;45.33;98579.73;1727720;80;21099;-82
2022/02/19 11:05:44;;;;;;;;;;;;;;;9.43;45.65;98607.13;1730907;80;20420;-82
2022/02/19 11:08:10;;;;;;;;;;;;;;;9.37;45.86;98656.62;1756533;80;20349;-81
2022/02/19 11:10:35;;;;;;;;;;;;;;;9.52;45.99;98621.34;1755873;79;20143;-82
2022/02/19 11:13:01;;;;;;;;;;;;;;;9.56;45.79;98562.99;1750939;80;20337;-82
2022/02/19 11:15:27;;;;;;;;;;;;;;;9.39;46.23;98667.80;1755909;80;21127;-82
2022/02/19 11:17:53;;;;;;;;;;;;;;;9.29;45.92;98828.29;1753788;80;20142;-81
2022/02/19 11:20:19;;;;;;;;;;;;;;;9.52;45.77;98654.77;1752009;80;20279;-82
2022/02/19 11:22:45;;;;;;;;;;;;;;;9.42;45.95;98718.30;1753518;80;20242;-81
2022/02/19 11:25:13;;;;;;;;;;;;;;;9.48;45.96;98653.52;1758384;80;20719;-81
2022/02/19 11:27:42;;;;;;;;;;;;;;;9.32;46.52;98671.18;1752500;80;22474;-83
2022/02/19 11:30:08;;;;;;;;;;;;;;;9.24;46.60;98664.67;1752759;79;20526;-81
2022/02/19 11:32:41;;;;;;;;;;;;;;;9.29;46.50;98673.34;1747173;80;20286;-81
2022/02/19 11:35:07;;;;;;;;;;;;;;;9.20;46.71;98643.67;1751786;80;20251;-84
2022/02/19 11:37:41;;;;;;;;;;;;;;;9.38;46.75;98735.98;1758227;79;20190;-83
2022/02/19 11:40:10;;;;;;;;;;;;;;;9.38;46.51;98680.66;1761331;79;20974;-81
2022/02/19 11:42:46;;;;;;;;;;;;;;;9.50;46.29;98658.90;1764471;80;20146;-82
2022/02/19 11:45:19;;;;;;;;;;;;;;;9.43;46.60;98687.49;1754855;80;20134;-81
2022/02/19 11:47:45;;;;;;;;;;;;;;;9.48;46.05;98702.27;1755981;81;20110;-82
2022/02/19 11:50:19;;;;;;;;;;;;;;;9.47;46.32;98658.47;1757879;81;20560;-83
2022/02/19 11:53:04;;;;;;;;;;;;;;;9.40;46.34;98703.67;1757011;81;21146;-83
2022/02/19 11:55:30;;;;;;;;;;;;;;;9.23;46.77;98719.70;1753897;80;20961;-81
2022/02/19 11:58:01;;;;;;;;;;;;;;;9.31;46.93;98747.25;1755056;81;20196;-83
2022/02/19 12:00:41;;;;;;;;;;;;;;;9.47;46.89;98667.69;1753343;81;20668;-82
2022/02/19 12:03:30;;;;;;;;;;;;;;;9.33;47.12;98709.67;1726938;80;20301;-83
2022/02/19 12:06:04;;;;;;;;;;;;;;;9.30;47.12;98750.87;1757761;80;21166;-82
2022/02/19 12:08:53;;;;;;;;;;;;;;;9.42;47.16;98704.33;1722461;81;20538;-83
2022/02/19 12:11:21;;;;;;;;;;;;;;;9.43;46.88;98745.45;1755255;80;20298;-82
2022/02/19 12:13:53;;;;;;;;;;;;;;;9.35;47.43;98720.03;1716979;81;21061;-84
2022/02/19 12:16:39;;;;;;;;;;;;;;;9.34;47.08;98796.94;1726985;81;20195;-81
2022/02/19 12:19:05;;;;;;;;;;;;;;;9.18;47.45;98827.39;1717159;81;20169;-81
2022/02/19 12:21:43;;;;;;;;;;;;;;;9.23;47.56;98752.62;1743156;81;20252;-82
2022/02/19 12:24:15;;;;;;;;;;;;;;;9.24;47.65;98726.58;1722654;81;20132;-79
2022/02/19 12:27:07;;;;;;;;;;;;;;;9.25;48.04;98783.53;1735453;81;20928;-81
2022/02/19 12:29:38;;;;;;;;;;;;;;;9.26;47.83;98790.45;1727456;81;20190;-81
2022/02/19 12:32:08;;;;;;;;;;;;;;;9.18;48.16;98816.05;1734634;81;22034;-79
2022/02/19 12:34:38;;;;;;;;;;;;;;;9.22;48.39;98793.12;1760413;80;20502;-80
2022/02/19 12:37:09;;;;;;;;;;;;;;;9.21;48.66;98786.72;1759779;80;20170;-81
2022/02/19 12:39:35;;;;;;;;;;;;;;;8.97;49.37;98789.92;1755899;80;20145;-80
2022/02/19 12:42:01;;;;;;;;;;;;;;;9.14;49.05;98791.89;1706830;81;20254;-79
2022/02/19 12:44:28;;;;;;;;;;;;;;;9.16;49.33;98814.91;1758604;80;21143;-80
2022/02/19 12:46:54;;;;;;;;;;;;;;;8.77;51.20;98852.77;1762042;80;20141;-78
2022/02/19 12:49:20;;;;;;;;;;;;;;;8.84;50.92;98831.34;1762013;80;20187;-82
2022/02/19 12:51:56;;;;;;;;;;;;;;;8.95;50.72;98838.80;1752414;80;20617;-79
2022/02/19 12:54:43;;;;;;;;;;;;;;;8.99;50.62;98811.61;1759102;79;20217;-79
2022/02/19 12:57:15;;;;;;;;;;;;;;;8.82;50.24;98843.84;1762158;80;21715;-80
2022/02/19 12:59:41;;;;;;;;;;;;;;;8.96;49.71;98831.23;1761663;80;20176;-80